createdAt,value
2019-03-21T00:01:38.671Z,36.37
2019-03-21T00:04:13.184Z,36.13
2019-03-21T00:06:44.201Z,38.47
2019-03-21T00:09:17.765Z,36.63
2019-03-21T00:12:09.556Z,37.88
2019-03-21T00:15:14.585Z,36.97
2019-03-21T00:17:50.632Z,38.03
2019-03-21T00:20:21.569Z,34.17
2019-03-21T00:22:52.514Z,37.90
2019-03-21T00:25:24.831Z,36.45
2019-03-21T00:27:55.821Z,38.60
2019-03-21T00:30:26.972Z,37.63
2019-03-21T00:32:58.066Z,38.20
2019-03-21T00:35:29.098Z,37.73
2019-03-21T00:38:00.098Z,39.10
2019-03-21T00:40:35.028Z,37.77
2019-03-21T00:43:09.477Z,36.57
2019-03-21T00:45:40.405Z,40.47
2019-03-21T00:48:14.055Z,34.53
2019-03-21T00:50:45.097Z,39.70
2019-03-21T00:53:16.044Z,39.38
2019-03-21T00:55:48.045Z,38.50
2019-03-21T00:58:18.980Z,38.53
2019-03-21T01:00:53.148Z,39.57
2019-03-21T01:03:24.140Z,37.33
2019-03-21T01:05:55.133Z,36.17
2019-03-21T01:08:25.988Z,36.27
2019-03-21T01:10:56.975Z,37.67
2019-03-21T01:13:31.426Z,38.63
2019-03-21T01:16:02.440Z,36.77
2019-03-21T01:18:33.495Z,36.27
2019-03-21T01:21:04.366Z,39.47
2019-03-21T01:23:35.411Z,37.40
2019-03-21T01:26:07.996Z,34.10
2019-03-21T01:28:39.257Z,35.47
2019-03-21T01:31:10.498Z,36.93
2019-03-21T01:33:42.003Z,34.87
2019-03-21T01:36:12.986Z,35.68
2019-03-21T01:38:44.119Z,32.63
2019-03-21T01:41:15.360Z,27.82
2019-03-21T01:43:46.412Z,31.07
2019-03-21T01:46:17.862Z,30.25
2019-03-21T01:48:48.969Z,29.60
2019-03-21T01:51:19.952Z,31.90
2019-03-21T01:53:50.984Z,30.33
2019-03-21T01:56:22.015Z,36.90
2019-03-21T01:58:53.368Z,31.63
2019-03-21T02:01:24.491Z,29.30
2019-03-21T02:03:55.456Z,27.87
2019-03-21T02:06:27.257Z,27.97
2019-03-21T02:08:58.470Z,29.83
2019-03-21T02:11:29.539Z,29.18
2019-03-21T02:14:00.561Z,31.50
2019-03-21T02:16:31.671Z,32.80
2019-03-21T02:19:02.729Z,33.00
2019-03-21T02:21:34.025Z,43.07
2019-03-21T02:24:05.881Z,36.63
2019-03-21T02:26:37.180Z,33.20
2019-03-21T02:29:08.341Z,33.43
2019-03-21T02:31:39.561Z,35.67
2019-03-21T02:34:11.035Z,33.03
2019-03-21T02:36:42.518Z,33.23
2019-03-21T02:39:13.877Z,34.77
2019-03-21T02:41:44.931Z,34.17
2019-03-21T02:44:15.998Z,33.53
2019-03-21T02:46:47.021Z,31.13
2019-03-21T02:49:18.027Z,32.48
2019-03-21T02:51:49.212Z,32.43
2019-03-21T02:54:20.447Z,30.77
2019-03-21T02:56:51.994Z,31.60
2019-03-21T02:59:25.488Z,33.65
2019-03-21T03:01:56.812Z,32.60
2019-03-21T03:04:27.981Z,33.73
2019-03-21T03:06:59.894Z,30.47
2019-03-21T03:09:30.993Z,32.27
2019-03-21T03:12:02.106Z,31.93
2019-03-21T03:14:32.974Z,30.73
2019-03-21T03:17:03.901Z,30.87
2019-03-21T03:19:34.912Z,31.20
2019-03-21T03:22:05.973Z,30.17
2019-03-21T03:24:38.458Z,28.47
2019-03-21T03:27:09.346Z,29.20
2019-03-21T03:29:40.323Z,29.57
2019-03-21T03:32:11.372Z,27.20
2019-03-21T03:34:42.335Z,26.97
2019-03-21T03:37:13.306Z,25.97
2019-03-21T03:39:44.168Z,24.67
2019-03-21T03:42:15.088Z,26.10
2019-03-21T03:44:45.974Z,26.47
2019-03-21T03:47:16.908Z,24.95
2019-03-21T03:49:47.783Z,25.70
2019-03-21T03:52:18.715Z,25.03
2019-03-21T03:54:49.669Z,23.53
2019-03-21T03:57:20.672Z,24.52
2019-03-21T03:59:51.680Z,24.07
2019-03-21T04:02:22.701Z,24.33
2019-03-21T04:04:53.622Z,24.30
2019-03-21T04:07:25.043Z,21.43
2019-03-21T04:09:56.015Z,22.83
2019-03-21T04:12:26.969Z,22.73
2019-03-21T04:14:57.995Z,22.43
2019-03-21T04:17:29.037Z,22.97
2019-03-21T04:19:59.893Z,22.57
2019-03-21T04:22:30.825Z,25.00
2019-03-21T04:25:01.959Z,23.90
2019-03-21T04:27:33.027Z,23.93
2019-03-21T04:30:04.081Z,26.37
2019-03-21T04:32:35.000Z,27.73
2019-03-21T04:35:06.600Z,28.50
2019-03-21T04:37:37.487Z,28.43
2019-03-21T04:40:09.877Z,30.87
2019-03-21T04:42:40.864Z,31.10
2019-03-21T04:45:15.994Z,33.38
2019-03-21T04:47:46.947Z,33.80
2019-03-21T04:50:21.651Z,33.55
2019-03-21T04:52:52.633Z,34.10
2019-03-21T04:55:23.572Z,34.23
2019-03-21T04:57:54.646Z,35.73
2019-03-21T05:00:28.665Z,34.15
2019-03-21T05:03:01.424Z,37.00
2019-03-21T05:05:32.323Z,37.00
2019-03-21T05:08:03.281Z,38.00
2019-03-21T05:10:34.256Z,37.83
2019-03-21T05:13:05.270Z,37.60
2019-03-21T05:15:38.794Z,37.73
2019-03-21T05:18:17.189Z,39.90
2019-03-21T05:20:48.191Z,36.57
2019-03-21T05:23:19.136Z,39.53
2019-03-21T05:25:50.081Z,39.60
2019-03-21T05:28:20.948Z,40.20
2019-03-21T05:30:56.606Z,42.07
2019-03-21T05:33:27.694Z,41.43
2019-03-21T05:35:58.622Z,40.90
2019-03-21T05:38:30.673Z,42.10
2019-03-21T05:41:01.719Z,42.73
2019-03-21T05:43:58.975Z,46.97
2019-03-21T05:46:30.204Z,44.97
2019-03-21T05:49:01.185Z,47.10
2019-03-21T05:52:00.108Z,49.20
2019-03-21T05:54:31.101Z,48.80
2019-03-21T05:57:02.157Z,50.13
2019-03-21T05:59:33.072Z,51.47
2019-03-21T06:02:04.201Z,50.03
2019-03-21T06:04:35.198Z,49.83
2019-03-21T06:07:43.544Z,50.50
2019-03-21T06:10:16.330Z,47.88
2019-03-21T06:12:47.867Z,49.57
2019-03-21T06:15:25.834Z,47.13
2019-03-21T06:18:34.452Z,47.53
2019-03-21T06:21:24.203Z,46.10
2019-03-21T06:25:08.426Z,43.63
2019-03-21T06:27:39.452Z,41.02
2019-03-21T06:30:12.267Z,42.40
2019-03-21T06:32:43.349Z,42.73
2019-03-21T06:35:24.350Z,40.33
2019-03-21T06:37:55.873Z,45.17
2019-03-21T06:40:27.176Z,43.37
2019-03-21T06:42:58.632Z,41.20
2019-03-21T06:45:30.076Z,40.13
2019-03-21T06:48:01.541Z,39.57
2019-03-21T06:50:33.065Z,38.97
2019-03-21T06:53:04.373Z,36.50
2019-03-21T06:55:35.889Z,35.10
2019-03-21T06:58:07.963Z,32.63
2019-03-21T07:00:39.319Z,33.33
2019-03-21T07:03:10.750Z,31.03
2019-03-21T07:05:41.929Z,31.53
2019-03-21T07:08:13.321Z,31.95
2019-03-21T07:10:44.408Z,30.40
2019-03-21T07:13:16.150Z,29.83
2019-03-21T07:15:47.494Z,30.33
2019-03-21T07:18:18.448Z,29.72
2019-03-21T07:20:49.506Z,31.17
2019-03-21T07:23:20.638Z,29.65
2019-03-21T07:25:51.786Z,31.17
2019-03-21T07:28:22.832Z,30.47
2019-03-21T07:30:53.926Z,29.83
2019-03-21T07:33:24.878Z,29.07
2019-03-21T07:35:55.916Z,28.12
2019-03-21T07:38:27.128Z,28.40
2019-03-21T07:40:58.167Z,28.20
2019-03-21T07:43:29.156Z,28.13
2019-03-21T07:46:02.615Z,28.50
2019-03-21T07:48:33.577Z,28.10
2019-03-21T07:51:06.890Z,27.97
2019-03-21T07:53:37.851Z,27.93
2019-03-21T07:56:08.933Z,26.77
2019-03-21T07:58:39.849Z,26.27
2019-03-21T08:01:10.935Z,26.80
2019-03-21T08:03:42.006Z,25.90
2019-03-21T08:06:13.202Z,27.15
2019-03-21T08:08:44.100Z,26.47
2019-03-21T08:11:15.032Z,25.37
2019-03-21T08:13:46.342Z,25.33
2019-03-21T08:16:20.155Z,25.63
2019-03-21T08:18:51.313Z,25.68
2019-03-21T08:21:22.247Z,25.77
2019-03-21T08:23:53.164Z,27.00
2019-03-21T08:26:24.156Z,25.97
2019-03-21T08:28:54.979Z,26.60
2019-03-21T08:31:25.909Z,26.30
2019-03-21T08:33:56.962Z,25.03
2019-03-21T08:36:28.047Z,24.80
2019-03-21T08:38:59.060Z,25.33
2019-03-21T08:41:30.158Z,24.90
2019-03-21T08:44:01.244Z,24.77
2019-03-21T08:46:32.189Z,26.13
2019-03-21T08:49:03.251Z,25.63
2019-03-21T08:51:34.301Z,24.33
2019-03-21T08:54:05.367Z,24.57
2019-03-21T08:56:36.451Z,23.87
2019-03-21T08:59:07.741Z,24.32
2019-03-21T09:01:38.962Z,22.30
2019-03-21T09:04:10.016Z,23.33
2019-03-21T09:06:41.097Z,22.30
2019-03-21T09:09:12.498Z,23.97
2019-03-21T09:11:43.954Z,23.77
2019-03-21T09:14:15.451Z,23.57
2019-03-21T09:16:46.634Z,25.37
2019-03-21T09:19:17.571Z,23.63
2019-03-21T09:21:48.482Z,24.20
2019-03-21T09:24:24.104Z,23.02
2019-03-21T09:26:55.170Z,24.60
2019-03-21T09:29:26.136Z,22.67
2019-03-21T09:31:57.179Z,22.60
2019-03-21T09:34:28.234Z,22.53
2019-03-21T09:36:59.292Z,23.43
2019-03-21T09:39:30.300Z,21.97
2019-03-21T09:42:01.598Z,21.13
2019-03-21T09:44:32.673Z,20.57
2019-03-21T09:47:03.779Z,22.23
2019-03-21T09:49:34.879Z,18.60
2019-03-21T09:52:05.962Z,15.53
2019-03-21T09:54:37.016Z,17.17
2019-03-21T09:57:08.064Z,15.43
2019-03-21T09:59:38.930Z,13.57
2019-03-21T10:02:09.945Z,13.17
2019-03-21T10:04:40.996Z,13.60
2019-03-21T10:07:11.939Z,13.50
2019-03-21T10:09:45.182Z,13.00
2019-03-21T10:12:16.871Z,14.80
2019-03-21T10:14:47.999Z,15.17
2019-03-21T10:17:19.079Z,15.32
2019-03-21T10:19:50.076Z,17.80
2019-03-21T10:22:21.063Z,19.53
2019-03-21T10:24:52.039Z,17.47
2019-03-21T10:27:23.043Z,20.20
2019-03-21T10:29:54.041Z,21.10
2019-03-21T10:32:25.052Z,19.85
2019-03-21T10:34:55.981Z,19.27
2019-03-21T10:37:26.912Z,20.97
2019-03-21T10:39:57.857Z,19.10
2019-03-21T10:42:28.884Z,19.57
2019-03-21T10:45:00.376Z,20.60
2019-03-21T10:47:31.495Z,23.40
2019-03-21T10:50:02.392Z,23.83
2019-03-21T10:52:33.477Z,24.00
2019-03-21T10:55:04.607Z,24.03
2019-03-21T10:57:35.586Z,25.97
2019-03-21T11:00:08.524Z,24.10
2019-03-21T11:02:39.574Z,25.80
2019-03-21T11:05:11.045Z,24.27
2019-03-21T11:07:42.075Z,24.60
2019-03-21T11:10:13.276Z,24.40
2019-03-21T11:12:44.475Z,25.03
2019-03-21T11:15:15.942Z,28.00
2019-03-21T11:17:47.047Z,26.70
2019-03-21T11:20:32.166Z,25.83
2019-03-21T11:23:03.396Z,27.13
2019-03-21T11:25:34.678Z,26.80
2019-03-21T11:28:06.915Z,29.33
2019-03-21T11:30:43.346Z,28.80
2019-03-21T11:33:14.399Z,27.30
2019-03-21T11:35:45.479Z,28.03
2019-03-21T11:38:16.624Z,28.63
2019-03-21T11:40:48.533Z,28.20
2019-03-21T11:43:20.543Z,28.97
2019-03-21T11:45:51.637Z,28.10
2019-03-21T11:48:22.636Z,28.40
2019-03-21T11:50:53.608Z,28.00
2019-03-21T11:53:24.576Z,28.20
2019-03-21T11:55:55.687Z,28.20
2019-03-21T11:58:26.772Z,28.20
2019-03-21T12:00:57.842Z,28.67
2019-03-21T12:03:29.033Z,29.00
2019-03-21T12:06:00.057Z,28.77
2019-03-21T12:08:32.347Z,28.20
2019-03-21T12:11:03.522Z,28.13
2019-03-21T12:13:34.383Z,28.27
2019-03-21T12:16:05.491Z,27.30
2019-03-21T12:18:36.589Z,30.37
2019-03-21T12:21:07.629Z,28.13
2019-03-21T12:23:38.599Z,29.13
2019-03-21T12:26:09.491Z,27.73
2019-03-21T12:28:40.520Z,29.63
2019-03-21T12:31:11.618Z,27.22
2019-03-21T12:33:42.801Z,26.53
2019-03-21T12:36:13.879Z,25.17
2019-03-21T12:38:44.906Z,26.07
2019-03-21T12:41:15.997Z,25.73
2019-03-21T12:43:47.162Z,25.53
2019-03-21T12:46:18.184Z,27.23
2019-03-21T12:48:52.269Z,25.37
2019-03-21T12:51:24.677Z,25.57
2019-03-21T12:53:55.770Z,24.67
2019-03-21T12:56:26.753Z,26.03
2019-03-21T12:59:00.428Z,26.20
2019-03-21T13:01:31.323Z,26.47
2019-03-21T13:04:02.380Z,25.53
2019-03-21T13:06:33.525Z,27.53
2019-03-21T13:09:06.337Z,27.03
2019-03-21T13:11:37.364Z,26.20
2019-03-21T13:14:08.484Z,27.37
2019-03-21T13:16:39.572Z,24.40
2019-03-21T13:19:10.600Z,24.63
2019-03-21T13:21:41.541Z,23.87
2019-03-21T13:24:12.524Z,23.50
2019-03-21T13:26:43.579Z,23.37
2019-03-21T13:29:14.583Z,21.93
2019-03-21T13:31:45.632Z,23.37
2019-03-21T13:34:16.563Z,23.17
2019-03-21T13:36:47.490Z,21.60
2019-03-21T13:39:18.419Z,23.80
2019-03-21T13:41:49.365Z,23.23
2019-03-21T13:44:20.333Z,23.30
2019-03-21T13:46:51.407Z,23.37
2019-03-21T13:49:22.627Z,24.50
2019-03-21T13:51:53.736Z,24.23
2019-03-21T13:54:24.699Z,24.18
2019-03-21T13:56:55.704Z,24.30
2019-03-21T13:59:26.678Z,22.47
2019-03-21T14:01:57.642Z,20.73
2019-03-21T14:04:28.560Z,22.23
2019-03-21T14:06:59.584Z,22.67
2019-03-21T14:09:30.584Z,22.33
2019-03-21T14:12:01.649Z,20.90
2019-03-21T14:14:32.685Z,20.43
2019-03-21T14:17:03.767Z,20.27
2019-03-21T14:19:34.879Z,20.53
2019-03-21T14:22:05.913Z,18.37
2019-03-21T14:24:36.958Z,17.73
2019-03-21T14:27:08.115Z,16.43
2019-03-21T14:29:39.266Z,17.77
2019-03-21T14:32:10.273Z,18.53
2019-03-21T14:34:41.223Z,18.53
2019-03-21T14:37:12.222Z,16.90
2019-03-21T14:39:43.264Z,15.87
2019-03-21T14:42:14.293Z,17.50
2019-03-21T14:44:45.230Z,16.83
2019-03-21T14:47:16.113Z,16.95
2019-03-21T14:49:47.196Z,15.80
2019-03-21T14:52:18.133Z,16.00
2019-03-21T14:54:49.195Z,15.47
2019-03-21T14:57:20.141Z,15.50
2019-03-21T14:59:51.229Z,15.20
2019-03-21T15:02:22.260Z,14.45
2019-03-21T15:04:53.237Z,15.47
2019-03-21T15:07:24.274Z,14.93
2019-03-21T15:09:55.354Z,14.97
2019-03-21T15:12:26.534Z,14.83
2019-03-21T15:14:57.705Z,14.17
2019-03-21T15:17:29.019Z,14.60
2019-03-21T15:20:00.181Z,14.67
2019-03-21T15:22:31.574Z,14.63
2019-03-21T15:25:02.676Z,14.97
2019-03-21T15:27:33.772Z,14.90
2019-03-21T15:30:05.957Z,15.60
2019-03-21T15:32:37.238Z,17.67
2019-03-21T15:35:10.611Z,15.40
2019-03-21T15:37:41.813Z,16.62
2019-03-21T15:40:13.606Z,16.70
2019-03-21T15:42:44.816Z,16.60
2019-03-21T15:45:22.644Z,16.00
2019-03-21T15:47:49.697Z,16.80
2019-03-21T15:50:32.702Z,16.23
2019-03-21T15:53:03.770Z,17.53
2019-03-21T15:55:35.103Z,17.37
2019-03-21T15:58:07.396Z,16.47
2019-03-21T16:00:42.590Z,16.57
2019-03-21T16:03:14.280Z,15.53
2019-03-21T16:05:45.362Z,15.23
2019-03-21T16:08:16.537Z,14.30
2019-03-21T16:10:47.387Z,13.83
2019-03-21T16:13:18.290Z,11.93
2019-03-21T16:15:49.218Z,12.47
2019-03-21T16:18:20.401Z,12.80
2019-03-21T16:20:51.403Z,13.55
2019-03-21T16:23:22.314Z,13.07
2019-03-21T16:25:53.390Z,13.03
2019-03-21T16:28:24.413Z,14.30
2019-03-21T16:30:55.272Z,14.00
2019-03-21T16:33:26.379Z,13.70
2019-03-21T16:35:57.402Z,14.40
2019-03-21T16:38:28.486Z,15.33
2019-03-21T16:40:59.489Z,16.50
2019-03-21T16:43:30.618Z,17.47
2019-03-21T16:46:01.647Z,16.30
2019-03-21T16:48:33.781Z,17.23
2019-03-21T16:51:05.195Z,16.17
2019-03-21T16:53:36.575Z,16.90
2019-03-21T16:56:08.064Z,20.85
2019-03-21T16:58:39.461Z,16.37
2019-03-21T17:01:11.083Z,17.07
2019-03-21T17:03:42.466Z,17.87
2019-03-21T17:06:13.630Z,17.07
2019-03-21T17:08:44.772Z,18.17
2019-03-21T17:11:15.796Z,18.57
2019-03-21T17:13:46.839Z,19.47
2019-03-21T17:16:17.886Z,19.50
2019-03-21T17:18:48.929Z,21.37
2019-03-21T17:21:20.062Z,25.68
2019-03-21T17:23:51.051Z,22.50
2019-03-21T17:26:22.122Z,22.50
2019-03-21T17:28:53.185Z,23.80
2019-03-21T17:31:24.196Z,25.02
2019-03-21T17:33:55.319Z,23.77
2019-03-21T17:36:26.461Z,23.43
2019-03-21T17:38:57.962Z,23.40
2019-03-21T17:41:29.212Z,23.33
2019-03-21T17:44:00.594Z,24.07
2019-03-21T17:46:32.166Z,25.48
2019-03-21T17:49:03.755Z,27.27
2019-03-21T17:51:35.102Z,25.93
2019-03-21T17:54:06.599Z,28.50
2019-03-21T17:59:15.822Z,28.07
2019-03-21T18:01:47.340Z,29.17
2019-03-21T18:04:18.618Z,29.82
2019-03-21T18:06:50.053Z,30.97
2019-03-21T18:09:21.837Z,31.63
2019-03-21T18:11:53.268Z,31.17
2019-03-21T18:14:24.732Z,30.72
2019-03-21T18:16:55.787Z,32.03
2019-03-21T18:19:26.816Z,30.60
2019-03-21T18:21:57.834Z,30.17
2019-03-21T18:24:28.937Z,32.13
2019-03-21T18:26:59.983Z,31.57
2019-03-21T18:29:31.050Z,32.70
2019-03-21T18:32:02.138Z,31.93
2019-03-21T18:34:33.302Z,33.40
2019-03-21T18:37:04.353Z,30.77
2019-03-21T18:39:35.407Z,31.80
2019-03-21T18:42:07.801Z,29.50
2019-03-21T18:44:38.747Z,30.17
2019-03-21T18:47:10.027Z,31.10
2019-03-21T18:49:44.045Z,27.90
2019-03-21T18:52:15.453Z,26.60
2019-03-21T18:54:46.775Z,28.40
2019-03-21T18:57:18.024Z,27.93
2019-03-21T18:59:49.299Z,29.27
2019-03-21T19:02:20.666Z,29.27
2019-03-21T19:04:52.415Z,29.57
2019-03-21T19:09:57.005Z,27.37
2019-03-21T19:12:28.385Z,29.10
2019-03-21T19:14:59.910Z,27.00
2019-03-21T19:17:32.032Z,26.83
2019-03-21T19:20:03.712Z,27.40
2019-03-21T19:22:35.015Z,25.23
2019-03-21T19:25:17.887Z,26.33
2019-03-21T19:27:40.406Z,25.27
2019-03-21T19:30:12.724Z,23.53
2019-03-21T19:32:44.081Z,22.53
2019-03-21T19:35:16.039Z,21.60
2019-03-21T19:37:47.510Z,20.90
2019-03-21T19:40:19.065Z,19.87
2019-03-21T19:42:50.477Z,20.23
2019-03-21T19:45:27.154Z,19.87
2019-03-21T19:47:58.887Z,18.40
2019-03-21T19:50:30.194Z,19.27
2019-03-21T19:53:01.524Z,18.70
2019-03-21T19:55:32.871Z,19.57
2019-03-21T19:58:04.744Z,18.47
2019-03-21T20:00:36.297Z,21.17
2019-03-21T20:03:08.121Z,19.50
2019-03-21T20:05:39.508Z,17.97
2019-03-21T20:08:10.903Z,19.57
2019-03-21T20:10:43.568Z,19.60
2019-03-21T20:13:15.495Z,18.50
2019-03-21T20:15:47.106Z,19.30
2019-03-21T20:18:18.317Z,20.20
2019-03-21T20:20:49.705Z,19.27
2019-03-21T20:23:21.288Z,19.97
2019-03-21T20:25:52.881Z,19.90
2019-03-21T20:28:26.040Z,19.13
2019-03-21T20:30:57.622Z,19.33
2019-03-21T20:33:29.020Z,19.23
2019-03-21T20:36:00.452Z,18.47
2019-03-21T20:38:31.949Z,18.57
2019-03-21T20:41:03.674Z,19.83
2019-03-21T20:43:35.023Z,19.40
2019-03-21T20:46:06.555Z,21.07
2019-03-21T20:48:34.994Z,19.93
2019-03-21T20:51:09.586Z,21.53
2019-03-21T20:53:40.960Z,21.90
2019-03-21T20:56:12.200Z,23.65
2019-03-21T20:58:43.517Z,25.57
2019-03-21T21:01:14.917Z,25.75
2019-03-21T21:03:46.189Z,27.80
2019-03-21T21:06:17.427Z,27.82
2019-03-21T21:11:22.123Z,25.30
2019-03-21T21:13:53.450Z,26.47
2019-03-21T21:16:24.734Z,25.88
2019-03-21T21:18:56.073Z,27.20
2019-03-21T21:21:27.471Z,27.63
2019-03-21T21:23:58.757Z,29.00
2019-03-21T21:26:30.023Z,24.27
2019-03-21T21:29:01.444Z,24.37
2019-03-21T21:31:33.289Z,27.05
2019-03-21T21:34:05.933Z,24.63
2019-03-21T21:36:37.308Z,26.93
2019-03-21T21:39:24.117Z,25.70
2019-03-21T21:41:55.568Z,25.27
2019-03-21T21:44:27.052Z,23.20
2019-03-21T21:46:58.410Z,22.83
2019-03-21T21:49:29.840Z,23.23
2019-03-21T21:52:01.298Z,22.37
2019-03-21T21:54:32.718Z,21.43
2019-03-21T21:57:04.115Z,21.70
2019-03-21T21:59:35.509Z,23.73
2019-03-21T22:02:08.105Z,24.18
2019-03-21T22:04:39.398Z,25.20
2019-03-21T22:07:11.132Z,24.53
2019-03-21T22:09:42.598Z,23.43
2019-03-21T22:12:14.078Z,22.65
2019-03-21T22:14:47.555Z,24.10
2019-03-21T22:17:18.879Z,24.17
2019-03-21T22:19:50.201Z,23.13
2019-03-21T22:22:21.941Z,23.03
2019-03-21T22:24:53.424Z,23.53
2019-03-21T22:27:24.742Z,22.80
2019-03-21T22:32:19.758Z,22.53
2019-03-21T22:34:50.793Z,22.70
2019-03-21T22:37:21.758Z,23.33
2019-03-21T22:39:52.609Z,22.40
2019-03-21T22:42:23.471Z,21.97
2019-03-21T22:44:54.345Z,22.70
2019-03-21T22:47:25.647Z,20.88
2019-03-21T22:49:56.592Z,20.10
2019-03-21T22:52:27.526Z,20.65
2019-03-21T22:54:58.472Z,22.10
2019-03-21T22:57:29.329Z,21.67
2019-03-21T23:00:00.446Z,21.83
2019-03-21T23:02:31.504Z,21.77
2019-03-21T23:05:02.449Z,22.10
2019-03-21T23:07:33.333Z,22.70
2019-03-21T23:10:04.671Z,24.70
2019-03-21T23:12:35.728Z,25.37
2019-03-21T23:15:08.358Z,25.57
2019-03-21T23:17:39.400Z,26.73
2019-03-21T23:20:11.191Z,25.00
2019-03-21T23:22:42.212Z,26.47
2019-03-21T23:25:16.569Z,26.60
2019-03-21T23:27:46.994Z,28.23
2019-03-21T23:30:18.178Z,27.42
2019-03-21T23:32:49.262Z,27.50
2019-03-21T23:35:20.304Z,26.57
2019-03-21T23:37:51.189Z,28.10
2019-03-21T23:40:22.246Z,27.73
2019-03-21T23:42:53.367Z,25.27
2019-03-21T23:45:24.497Z,29.33
2019-03-21T23:47:56.573Z,30.17
2019-03-21T23:50:27.614Z,28.80
2019-03-21T23:52:58.654Z,29.27
2019-03-21T23:55:29.569Z,32.17
2019-03-21T23:58:00.431Z,33.77
